Городовиковск

Карта отелей и гостиниц, располагающихся рядом с аэропортом Городовиковск :

Городовиковск Республика Калмыкия 46° 3' 30.42" N, 41° 53' 12.0012" E
Городовиковск Республика Калмыкия 46° 3' 30.42" N, 41° 53' 12.0012" E
Код аэродрома ИКАО
ZA3Y
Код аэродрома RU
ЗА3Ы
Координаты
N46.05845° E041.88667°
Превышение над уровнем моря
80
Основная полоса
02/20
Курс магнитный
017/197
Длина основной ВПП
1400
Ширина основной ВПП
60
Покрытие основной ВПП
Нетвёрдое (грунт)
Освещение ВПП
Нет
Тип: 
Аэродром
Класс аэродрома: 
Принадлежность: 
ГА
Статус: 
Недействующий
Сайт: 
E-mail аэродрома: 
Страна: 
Россия
Регион: 
Республика Калмыкия
Город: 
Дополнительная информация: 

Найти трансфер

С помощью этой формы Вы можете найти трансфер из аэропорта Городовиковск в город, аэропорт или вокзал:

Карта места

Javascript is required to view this map.

Погода в аэропортах:

Авиационная погода в Брянске

Регион: 
Погода METAR: 
UUBP 171630Z AUTO 23002MPS 6000 -RA ///007/// ///025/// 06/06 Q1016
Время наблюдения
2021-04-17T16:30:00Z
Температура C
6.0
Точка росы
6.0
Направление ветра
230
Скорость ветра (узлы)
4
Метео видимость
3.73
Явления погоды
-RA
Условия полета
Аэропорт подробнее: 

Авиационная погода в Полярном

Регион: 
Погода METAR: 
UERP 171700Z 30006G12MPS 9999 -SHSN DRSN BKN017CB OVC100 M12/M14 Q0995 NOSIG RMK QFE702
Время наблюдения
2021-04-17T17:00:00Z
Температура C
-12.0
Точка росы
-14.0
Направление ветра
300
Скорость ветра (узлы)
12
Метео видимость
6.21
Явления погоды
-SHSN DRSN
Условия полета
MVFR
Аэропорт подробнее: 

Авиационная погода во Владикавказе

Регион: 
Погода METAR: 
URMO 171630Z 19002MPS 160V240 9999 -RA OVC018 11/09 Q1022 R27/290150 NOSIG RMK QFE721/0962
Время наблюдения
2021-04-17T16:30:00Z
Температура C
11.0
Точка росы
9.0
Направление ветра
190
Скорость ветра (узлы)
4
Метео видимость
6.21
Явления погоды
-RA
Условия полета
MVFR
Аэропорт подробнее: 

Авиационная погода в Ставрополе

Регион: 
Погода METAR: 
URMT 171630Z 00000MPS 9999 -RA SCT040 09/06 Q1021 R25/290250 NOSIG RMK QFE727
Время наблюдения
2021-04-17T16:30:00Z
Температура C
9.0
Точка росы
6.0
Направление ветра
0
Скорость ветра (узлы)
0
Метео видимость
6.21
Явления погоды
-RA
Условия полета
VFR
Аэропорт подробнее: